sensor_id;sensor_type;location;lat;lon;timestamp;temperature;humidity
32201;DHT22;18701;45.588;5.288;2023-12-14T00:01:20;9.10;99.90
32201;DHT22;18701;45.588;5.288;2023-12-14T00:03:45;9.10;99.90
32201;DHT22;18701;45.588;5.288;2023-12-14T00:06:11;9.00;99.90
32201;DHT22;18701;45.588;5.288;2023-12-14T00:08:37;9.00;99.90
32201;DHT22;18701;45.588;5.288;2023-12-14T00:11:11;9.00;99.90
32201;DHT22;18701;45.588;5.288;2023-12-14T00:13:37;9.10;99.90
32201;DHT22;18701;45.588;5.288;2023-12-14T00:16:03;9.00;99.90
32201;DHT22;18701;45.588;5.288;2023-12-14T00:18:29;9.20;99.90
32201;DHT22;18701;45.588;5.288;2023-12-14T00:20:55;9.20;99.90
32201;DHT22;18701;45.588;5.288;2023-12-14T00:23:21;9.20;99.90
32201;DHT22;18701;45.588;5.288;2023-12-14T00:25:47;9.10;99.90
32201;DHT22;18701;45.588;5.288;2023-12-14T00:28:13;9.10;99.90
32201;DHT22;18701;45.588;5.288;2023-12-14T00:30:39;9.30;99.90
32201;DHT22;18701;45.588;5.288;2023-12-14T00:33:05;9.20;99.90
32201;DHT22;18701;45.588;5.288;2023-12-14T00:35:30;9.20;99.90
32201;DHT22;18701;45.588;5.288;2023-12-14T00:37:56;9.20;99.90
32201;DHT22;18701;45.588;5.288;2023-12-14T00:40:22;9.20;99.90
32201;DHT22;18701;45.588;5.288;2023-12-14T00:42:47;9.00;99.90
32201;DHT22;18701;45.588;5.288;2023-12-14T00:45:13;9.00;99.90
32201;DHT22;18701;45.588;5.288;2023-12-14T00:47:38;9.00;99.90
32201;DHT22;18701;45.588;5.288;2023-12-14T00:50:04;9.10;99.90
32201;DHT22;18701;45.588;5.288;2023-12-14T00:52:30;8.90;99.90
32201;DHT22;18701;45.588;5.288;2023-12-14T00:54:56;8.90;99.90
32201;DHT22;18701;45.588;5.288;2023-12-14T00:57:21;8.80;99.90
32201;DHT22;18701;45.588;5.288;2023-12-14T00:59:47;8.90;99.90
32201;DHT22;18701;45.588;5.288;2023-12-14T01:02:13;9.10;99.90
32201;DHT22;18701;45.588;5.288;2023-12-14T01:04:38;9.20;99.90
32201;DHT22;18701;45.588;5.288;2023-12-14T01:07:04;9.00;99.90
32201;DHT22;18701;45.588;5.288;2023-12-14T01:09:30;9.00;99.90
32201;DHT22;18701;45.588;5.288;2023-12-14T01:11:56;8.90;99.90
32201;DHT22;18701;45.588;5.288;2023-12-14T01:14:21;9.00;99.90
32201;DHT22;18701;45.588;5.288;2023-12-14T01:16:47;9.00;99.90
32201;DHT22;18701;45.588;5.288;2023-12-14T01:19:12;8.90;99.90
32201;DHT22;18701;45.588;5.288;2023-12-14T01:21:38;8.80;99.90
32201;DHT22;18701;45.588;5.288;2023-12-14T01:24:04;8.90;99.90
32201;DHT22;18701;45.588;5.288;2023-12-14T01:26:30;9.00;99.90
32201;DHT22;18701;45.588;5.288;2023-12-14T01:28:55;9.00;99.90
32201;DHT22;18701;45.588;5.288;2023-12-14T01:31:21;8.90;99.90
32201;DHT22;18701;45.588;5.288;2023-12-14T01:33:50;8.90;99.90
32201;DHT22;18701;45.588;5.288;2023-12-14T01:36:24;9.00;99.90
32201;DHT22;18701;45.588;5.288;2023-12-14T01:38:50;8.90;99.90
32201;DHT22;18701;45.588;5.288;2023-12-14T01:41:15;8.80;99.90
32201;DHT22;18701;45.588;5.288;2023-12-14T01:43:41;8.70;99.90
32201;DHT22;18701;45.588;5.288;2023-12-14T01:46:07;8.70;99.90
32201;DHT22;18701;45.588;5.288;2023-12-14T01:48:32;8.70;99.90
32201;DHT22;18701;45.588;5.288;2023-12-14T01:50:58;8.60;99.90
32201;DHT22;18701;45.588;5.288;2023-12-14T01:53:24;8.70;99.90
32201;DHT22;18701;45.588;5.288;2023-12-14T01:55:49;8.70;99.90
32201;DHT22;18701;45.588;5.288;2023-12-14T01:58:15;8.80;99.90
32201;DHT22;18701;45.588;5.288;2023-12-14T02:03:19;8.80;99.90
32201;DHT22;18701;45.588;5.288;2023-12-14T02:05:44;8.80;99.90
32201;DHT22;18701;45.588;5.288;2023-12-14T02:08:10;8.80;99.90
32201;DHT22;18701;45.588;5.288;2023-12-14T02:10:36;8.90;99.90
32201;DHT22;18701;45.588;5.288;2023-12-14T02:13:02;8.70;99.90
32201;DHT22;18701;45.588;5.288;2023-12-14T02:15:28;8.80;99.90
32201;DHT22;18701;45.588;5.288;2023-12-14T02:17:54;8.80;99.90
32201;DHT22;18701;45.588;5.288;2023-12-14T02:20:19;8.70;99.90
32201;DHT22;18701;45.588;5.288;2023-12-14T02:22:49;8.70;99.90
32201;DHT22;18701;45.588;5.288;2023-12-14T02:25:16;8.70;99.90
32201;DHT22;18701;45.588;5.288;2023-12-14T02:27:41;8.60;99.90
32201;DHT22;18701;45.588;5.288;2023-12-14T02:30:08;8.50;99.90
32201;DHT22;18701;45.588;5.288;2023-12-14T02:32:34;8.60;99.90
32201;DHT22;18701;45.588;5.288;2023-12-14T02:34:59;8.50;99.90
32201;DHT22;18701;45.588;5.288;2023-12-14T02:37:25;8.40;99.90
32201;DHT22;18701;45.588;5.288;2023-12-14T02:39:51;8.30;99.90
32201;DHT22;18701;45.588;5.288;2023-12-14T02:42:16;8.60;99.90
32201;DHT22;18701;45.588;5.288;2023-12-14T02:44:42;8.50;99.90
32201;DHT22;18701;45.588;5.288;2023-12-14T02:47:07;8.60;99.90
32201;DHT22;18701;45.588;5.288;2023-12-14T02:49:33;8.50;99.90
32201;DHT22;18701;45.588;5.288;2023-12-14T02:51:59;8.40;99.90
32201;DHT22;18701;45.588;5.288;2023-12-14T02:54:24;8.40;99.90
32201;DHT22;18701;45.588;5.288;2023-12-14T02:56:50;8.50;99.90
32201;DHT22;18701;45.588;5.288;2023-12-14T02:59:16;8.50;99.90
32201;DHT22;18701;45.588;5.288;2023-12-14T03:01:41;8.50;99.90
32201;DHT22;18701;45.588;5.288;2023-12-14T03:04:07;8.60;99.90
32201;DHT22;18701;45.588;5.288;2023-12-14T03:06:33;8.60;99.90
32201;DHT22;18701;45.588;5.288;2023-12-14T03:08:59;8.60;99.90
32201;DHT22;18701;45.588;5.288;2023-12-14T03:11:25;8.60;99.90
32201;DHT22;18701;45.588;5.288;2023-12-14T03:13:51;8.60;99.90
32201;DHT22;18701;45.588;5.288;2023-12-14T03:16:18;8.50;99.90
32201;DHT22;18701;45.588;5.288;2023-12-14T03:18:44;8.70;99.90
32201;DHT22;18701;45.588;5.288;2023-12-14T03:21:10;8.70;99.90
32201;DHT22;18701;45.588;5.288;2023-12-14T03:23:35;8.60;99.90
32201;DHT22;18701;45.588;5.288;2023-12-14T03:26:02;8.70;99.90
32201;DHT22;18701;45.588;5.288;2023-12-14T03:28:27;8.70;99.90
32201;DHT22;18701;45.588;5.288;2023-12-14T03:30:53;8.70;99.90
32201;DHT22;18701;45.588;5.288;2023-12-14T03:33:19;8.70;99.90
32201;DHT22;18701;45.588;5.288;2023-12-14T03:35:45;8.60;99.90
32201;DHT22;18701;45.588;5.288;2023-12-14T03:38:13;8.60;99.90
32201;DHT22;18701;45.588;5.288;2023-12-14T03:40:39;8.50;99.90
32201;DHT22;18701;45.588;5.288;2023-12-14T03:43:04;8.50;99.90
32201;DHT22;18701;45.588;5.288;2023-12-14T03:45:30;8.50;99.90
32201;DHT22;18701;45.588;5.288;2023-12-14T03:47:56;8.60;99.90
32201;DHT22;18701;45.588;5.288;2023-12-14T03:50:22;8.60;99.90
32201;DHT22;18701;45.588;5.288;2023-12-14T03:52:47;8.40;99.90
32201;DHT22;18701;45.588;5.288;2023-12-14T03:55:13;8.60;99.90
32201;DHT22;18701;45.588;5.288;2023-12-14T03:57:40;8.60;99.90
32201;DHT22;18701;45.588;5.288;2023-12-14T04:00:11;8.50;99.90
32201;DHT22;18701;45.588;5.288;2023-12-14T04:02:37;8.30;99.90
32201;DHT22;18701;45.588;5.288;2023-12-14T04:05:02;8.40;99.90
32201;DHT22;18701;45.588;5.288;2023-12-14T04:07:28;8.40;99.90
32201;DHT22;18701;45.588;5.288;2023-12-14T04:09:54;8.30;99.90
32201;DHT22;18701;45.588;5.288;2023-12-14T04:12:19;8.40;99.90
32201;DHT22;18701;45.588;5.288;2023-12-14T04:14:46;8.30;99.90
32201;DHT22;18701;45.588;5.288;2023-12-14T04:17:11;8.30;99.90
32201;DHT22;18701;45.588;5.288;2023-12-14T04:19:41;8.20;99.90
32201;DHT22;18701;45.588;5.288;2023-12-14T04:22:07;8.20;99.90
32201;DHT22;18701;45.588;5.288;2023-12-14T04:24:33;8.30;99.90
32201;DHT22;18701;45.588;5.288;2023-12-14T04:26:59;8.10;99.90
32201;DHT22;18701;45.588;5.288;2023-12-14T04:29:25;8.20;99.90
32201;DHT22;18701;45.588;5.288;2023-12-14T04:31:51;8.10;99.90
32201;DHT22;18701;45.588;5.288;2023-12-14T04:34:18;8.10;99.90
32201;DHT22;18701;45.588;5.288;2023-12-14T04:36:45;8.20;99.90
32201;DHT22;18701;45.588;5.288;2023-12-14T04:39:11;8.30;99.90
32201;DHT22;18701;45.588;5.288;2023-12-14T04:41:37;8.20;99.90
32201;DHT22;18701;45.588;5.288;2023-12-14T04:44:03;8.20;99.90
32201;DHT22;18701;45.588;5.288;2023-12-14T04:46:28;8.30;99.90
32201;DHT22;18701;45.588;5.288;2023-12-14T04:48:55;8.10;99.90
32201;DHT22;18701;45.588;5.288;2023-12-14T04:51:20;8.00;99.90
32201;DHT22;18701;45.588;5.288;2023-12-14T04:53:46;8.10;99.90
32201;DHT22;18701;45.588;5.288;2023-12-14T04:56:12;8.30;99.90
32201;DHT22;18701;45.588;5.288;2023-12-14T04:58:39;8.20;99.90
32201;DHT22;18701;45.588;5.288;2023-12-14T05:01:05;8.30;99.90
32201;DHT22;18701;45.588;5.288;2023-12-14T05:03:31;8.20;99.90
32201;DHT22;18701;45.588;5.288;2023-12-14T05:05:56;8.20;99.90
32201;DHT22;18701;45.588;5.288;2023-12-14T05:08:22;8.30;99.90
32201;DHT22;18701;45.588;5.288;2023-12-14T05:10:47;8.40;99.90
32201;DHT22;18701;45.588;5.288;2023-12-14T05:13:13;8.30;99.90
32201;DHT22;18701;45.588;5.288;2023-12-14T05:15:39;8.40;99.90
32201;DHT22;18701;45.588;5.288;2023-12-14T05:18:04;8.40;99.90
32201;DHT22;18701;45.588;5.288;2023-12-14T05:20:30;8.40;99.90
32201;DHT22;18701;45.588;5.288;2023-12-14T05:22:55;8.30;99.90
32201;DHT22;18701;45.588;5.288;2023-12-14T05:25:21;8.20;99.90
32201;DHT22;18701;45.588;5.288;2023-12-14T05:27:47;8.50;99.90
32201;DHT22;18701;45.588;5.288;2023-12-14T05:30:13;8.40;99.90
32201;DHT22;18701;45.588;5.288;2023-12-14T05:32:38;8.60;99.90
32201;DHT22;18701;45.588;5.288;2023-12-14T05:35:04;8.30;99.90
32201;DHT22;18701;45.588;5.288;2023-12-14T05:37:30;8.20;99.90
32201;DHT22;18701;45.588;5.288;2023-12-14T05:39:56;8.10;99.90
32201;DHT22;18701;45.588;5.288;2023-12-14T05:42:22;8.00;99.90
32201;DHT22;18701;45.588;5.288;2023-12-14T05:44:48;8.00;99.90
32201;DHT22;18701;45.588;5.288;2023-12-14T05:47:13;8.00;99.90
32201;DHT22;18701;45.588;5.288;2023-12-14T05:49:43;8.00;99.90
32201;DHT22;18701;45.588;5.288;2023-12-14T05:52:09;8.10;99.90
32201;DHT22;18701;45.588;5.288;2023-12-14T05:54:39;8.10;99.90
32201;DHT22;18701;45.588;5.288;2023-12-14T05:57:07;8.10;99.90
32201;DHT22;18701;45.588;5.288;2023-12-14T05:59:32;8.10;99.90
32201;DHT22;18701;45.588;5.288;2023-12-14T06:01:59;8.00;99.90
32201;DHT22;18701;45.588;5.288;2023-12-14T06:04:25;8.10;99.90
32201;DHT22;18701;45.588;5.288;2023-12-14T06:06:51;8.00;99.90
32201;DHT22;18701;45.588;5.288;2023-12-14T06:09:17;7.80;99.90
32201;DHT22;18701;45.588;5.288;2023-12-14T06:11:44;7.90;99.90
32201;DHT22;18701;45.588;5.288;2023-12-14T06:14:10;7.90;99.90
32201;DHT22;18701;45.588;5.288;2023-12-14T06:16:36;7.90;99.90
32201;DHT22;18701;45.588;5.288;2023-12-14T06:19:01;7.70;99.90
32201;DHT22;18701;45.588;5.288;2023-12-14T06:21:27;8.10;99.90
32201;DHT22;18701;45.588;5.288;2023-12-14T06:23:57;8.00;99.90
32201;DHT22;18701;45.588;5.288;2023-12-14T06:26:24;7.80;99.90
32201;DHT22;18701;45.588;5.288;2023-12-14T06:28:50;7.80;99.90
32201;DHT22;18701;45.588;5.288;2023-12-14T06:31:16;7.60;99.90
32201;DHT22;18701;45.588;5.288;2023-12-14T06:33:43;7.70;99.90
32201;DHT22;18701;45.588;5.288;2023-12-14T06:36:08;7.70;99.90
32201;DHT22;18701;45.588;5.288;2023-12-14T06:38:34;7.60;99.90
32201;DHT22;18701;45.588;5.288;2023-12-14T06:41:00;7.90;99.90
32201;DHT22;18701;45.588;5.288;2023-12-14T06:43:27;7.70;99.90
32201;DHT22;18701;45.588;5.288;2023-12-14T06:45:53;7.80;99.90
32201;DHT22;18701;45.588;5.288;2023-12-14T06:48:19;7.60;99.90
32201;DHT22;18701;45.588;5.288;2023-12-14T06:50:45;7.70;99.90
32201;DHT22;18701;45.588;5.288;2023-12-14T06:53:11;7.60;99.90
32201;DHT22;18701;45.588;5.288;2023-12-14T06:55:37;7.90;99.90
32201;DHT22;18701;45.588;5.288;2023-12-14T06:58:02;7.70;99.90
32201;DHT22;18701;45.588;5.288;2023-12-14T07:00:28;7.80;99.90
32201;DHT22;18701;45.588;5.288;2023-12-14T07:02:55;7.80;99.90
32201;DHT22;18701;45.588;5.288;2023-12-14T07:05:21;7.80;99.90
32201;DHT22;18701;45.588;5.288;2023-12-14T07:07:46;7.90;99.90
32201;DHT22;18701;45.588;5.288;2023-12-14T07:10:12;7.90;99.90
32201;DHT22;18701;45.588;5.288;2023-12-14T07:12:37;7.90;99.90
32201;DHT22;18701;45.588;5.288;2023-12-14T07:15:03;8.00;99.90
32201;DHT22;18701;45.588;5.288;2023-12-14T07:17:30;7.90;99.90
32201;DHT22;18701;45.588;5.288;2023-12-14T07:19:56;8.10;99.90
32201;DHT22;18701;45.588;5.288;2023-12-14T07:22:21;8.00;99.90
32201;DHT22;18701;45.588;5.288;2023-12-14T07:24:47;8.00;99.90
32201;DHT22;18701;45.588;5.288;2023-12-14T07:27:13;8.00;99.90
32201;DHT22;18701;45.588;5.288;2023-12-14T07:29:38;8.00;99.90
32201;DHT22;18701;45.588;5.288;2023-12-14T07:32:04;8.10;99.90
32201;DHT22;18701;45.588;5.288;2023-12-14T07:34:30;8.20;99.90
32201;DHT22;18701;45.588;5.288;2023-12-14T07:36:56;8.10;99.90
32201;DHT22;18701;45.588;5.288;2023-12-14T07:39:21;8.10;99.90
32201;DHT22;18701;45.588;5.288;2023-12-14T07:41:47;8.10;99.90
32201;DHT22;18701;45.588;5.288;2023-12-14T07:44:13;7.90;99.90
32201;DHT22;18701;45.588;5.288;2023-12-14T07:46:38;7.80;99.90
32201;DHT22;18701;45.588;5.288;2023-12-14T07:49:07;7.70;99.90
32201;DHT22;18701;45.588;5.288;2023-12-14T07:51:32;8.00;99.90
32201;DHT22;18701;45.588;5.288;2023-12-14T07:53:58;8.10;99.90
32201;DHT22;18701;45.588;5.288;2023-12-14T07:56:24;8.00;99.90
32201;DHT22;18701;45.588;5.288;2023-12-14T07:58:53;7.90;99.90
32201;DHT22;18701;45.588;5.288;2023-12-14T08:01:18;7.80;99.90
32201;DHT22;18701;45.588;5.288;2023-12-14T08:03:46;8.00;99.90
32201;DHT22;18701;45.588;5.288;2023-12-14T08:06:11;8.00;99.90
32201;DHT22;18701;45.588;5.288;2023-12-14T08:08:37;7.80;99.90
32201;DHT22;18701;45.588;5.288;2023-12-14T08:11:04;7.80;99.90
32201;DHT22;18701;45.588;5.288;2023-12-14T08:13:30;7.70;99.90
32201;DHT22;18701;45.588;5.288;2023-12-14T08:15:56;7.80;99.90
32201;DHT22;18701;45.588;5.288;2023-12-14T08:18:21;7.90;99.90
32201;DHT22;18701;45.588;5.288;2023-12-14T08:20:47;7.80;99.90
32201;DHT22;18701;45.588;5.288;2023-12-14T08:23:13;7.80;99.90
32201;DHT22;18701;45.588;5.288;2023-12-14T08:25:38;7.90;99.90
32201;DHT22;18701;45.588;5.288;2023-12-14T08:28:04;7.90;99.90
32201;DHT22;18701;45.588;5.288;2023-12-14T08:30:30;7.80;99.90
32201;DHT22;18701;45.588;5.288;2023-12-14T08:32:56;7.90;99.90
32201;DHT22;18701;45.588;5.288;2023-12-14T08:35:21;8.00;99.90
32201;DHT22;18701;45.588;5.288;2023-12-14T08:37:47;8.00;99.90
32201;DHT22;18701;45.588;5.288;2023-12-14T08:40:12;7.80;99.90
32201;DHT22;18701;45.588;5.288;2023-12-14T08:42:38;7.90;99.90
32201;DHT22;18701;45.588;5.288;2023-12-14T08:45:04;7.80;99.90
32201;DHT22;18701;45.588;5.288;2023-12-14T08:47:30;7.80;99.90
32201;DHT22;18701;45.588;5.288;2023-12-14T08:49:55;7.80;99.90
32201;DHT22;18701;45.588;5.288;2023-12-14T08:52:21;7.80;99.90
32201;DHT22;18701;45.588;5.288;2023-12-14T08:54:47;7.80;99.90
32201;DHT22;18701;45.588;5.288;2023-12-14T08:57:12;7.90;99.90
32201;DHT22;18701;45.588;5.288;2023-12-14T08:59:38;8.00;99.90
32201;DHT22;18701;45.588;5.288;2023-12-14T09:02:04;8.10;99.90
32201;DHT22;18701;45.588;5.288;2023-12-14T09:04:30;8.20;99.90
32201;DHT22;18701;45.588;5.288;2023-12-14T09:06:55;8.20;99.90
32201;DHT22;18701;45.588;5.288;2023-12-14T09:09:21;7.90;99.90
32201;DHT22;18701;45.588;5.288;2023-12-14T09:11:47;8.00;99.90
32201;DHT22;18701;45.588;5.288;2023-12-14T09:14:12;8.00;99.90
32201;DHT22;18701;45.588;5.288;2023-12-14T09:16:38;8.00;99.90
32201;DHT22;18701;45.588;5.288;2023-12-14T09:19:03;8.00;99.90
32201;DHT22;18701;45.588;5.288;2023-12-14T09:21:29;7.90;99.90
32201;DHT22;18701;45.588;5.288;2023-12-14T09:23:55;7.90;99.90
32201;DHT22;18701;45.588;5.288;2023-12-14T09:26:21;7.90;99.90
32201;DHT22;18701;45.588;5.288;2023-12-14T09:28:46;8.10;99.90
32201;DHT22;18701;45.588;5.288;2023-12-14T09:31:12;8.00;99.90
32201;DHT22;18701;45.588;5.288;2023-12-14T09:33:38;8.10;99.90
32201;DHT22;18701;45.588;5.288;2023-12-14T09:36:04;7.90;99.90
32201;DHT22;18701;45.588;5.288;2023-12-14T09:38:29;8.00;99.90
32201;DHT22;18701;45.588;5.288;2023-12-14T09:40:55;8.00;99.90
32201;DHT22;18701;45.588;5.288;2023-12-14T09:43:22;8.00;99.90
32201;DHT22;18701;45.588;5.288;2023-12-14T09:45:49;8.00;99.90
32201;DHT22;18701;45.588;5.288;2023-12-14T09:48:15;8.10;99.90
32201;DHT22;18701;45.588;5.288;2023-12-14T09:50:41;8.20;99.90
32201;DHT22;18701;45.588;5.288;2023-12-14T09:53:07;8.10;99.90
32201;DHT22;18701;45.588;5.288;2023-12-14T09:55:34;8.30;99.90
32201;DHT22;18701;45.588;5.288;2023-12-14T09:58:00;8.10;99.90
32201;DHT22;18701;45.588;5.288;2023-12-14T10:00:38;8.00;99.90
32201;DHT22;18701;45.588;5.288;2023-12-14T10:05:49;8.10;99.90
32201;DHT22;18701;45.588;5.288;2023-12-14T10:08:16;8.00;99.90
32201;DHT22;18701;45.588;5.288;2023-12-14T10:10:42;8.20;99.90
32201;DHT22;18701;45.588;5.288;2023-12-14T10:13:09;8.10;99.90
32201;DHT22;18701;45.588;5.288;2023-12-14T10:16:00;8.00;99.90
32201;DHT22;18701;45.588;5.288;2023-12-14T10:18:26;8.10;99.90
32201;DHT22;18701;45.588;5.288;2023-12-14T10:20:52;8.10;99.90
32201;DHT22;18701;45.588;5.288;2023-12-14T10:23:19;8.00;99.90
32201;DHT22;18701;45.588;5.288;2023-12-14T10:25:45;8.00;99.90
32201;DHT22;18701;45.588;5.288;2023-12-14T10:28:14;8.20;99.90
32201;DHT22;18701;45.588;5.288;2023-12-14T10:30:40;8.10;99.90
32201;DHT22;18701;45.588;5.288;2023-12-14T10:33:06;8.20;99.90
32201;DHT22;18701;45.588;5.288;2023-12-14T10:35:32;8.30;99.90
32201;DHT22;18701;45.588;5.288;2023-12-14T10:38:02;8.30;99.90
32201;DHT22;18701;45.588;5.288;2023-12-14T10:40:29;8.10;99.90
32201;DHT22;18701;45.588;5.288;2023-12-14T10:42:58;8.20;99.90
32201;DHT22;18701;45.588;5.288;2023-12-14T10:45:29;8.10;99.90
32201;DHT22;18701;45.588;5.288;2023-12-14T10:47:55;8.20;99.90
32201;DHT22;18701;45.588;5.288;2023-12-14T10:50:21;8.10;99.90
32201;DHT22;18701;45.588;5.288;2023-12-14T10:52:48;7.80;99.90
32201;DHT22;18701;45.588;5.288;2023-12-14T10:55:31;7.80;99.90
32201;DHT22;18701;45.588;5.288;2023-12-14T10:57:58;7.90;99.90
32201;DHT22;18701;45.588;5.288;2023-12-14T11:00:24;7.80;99.90
32201;DHT22;18701;45.588;5.288;2023-12-14T11:02:51;7.90;99.90
32201;DHT22;18701;45.588;5.288;2023-12-14T11:05:18;7.90;99.90
32201;DHT22;18701;45.588;5.288;2023-12-14T11:07:51;7.90;99.90
32201;DHT22;18701;45.588;5.288;2023-12-14T11:10:36;7.90;99.90
32201;DHT22;18701;45.588;5.288;2023-12-14T11:13:03;7.90;99.90
32201;DHT22;18701;45.588;5.288;2023-12-14T11:15:30;7.90;99.90
32201;DHT22;18701;45.588;5.288;2023-12-14T11:20:54;8.00;99.90
32201;DHT22;18701;45.588;5.288;2023-12-14T11:23:36;7.90;99.90
32201;DHT22;18701;45.588;5.288;2023-12-14T11:26:02;7.90;99.90
32201;DHT22;18701;45.588;5.288;2023-12-14T11:28:32;8.00;99.90
32201;DHT22;18701;45.588;5.288;2023-12-14T11:30:58;7.90;99.90
32201;DHT22;18701;45.588;5.288;2023-12-14T11:33:25;8.10;99.90
32201;DHT22;18701;45.588;5.288;2023-12-14T11:35:53;8.00;99.90
32201;DHT22;18701;45.588;5.288;2023-12-14T11:38:19;8.10;99.90
32201;DHT22;18701;45.588;5.288;2023-12-14T11:40:47;8.00;99.90
32201;DHT22;18701;45.588;5.288;2023-12-14T11:43:14;7.90;99.90
32201;DHT22;18701;45.588;5.288;2023-12-14T11:45:41;8.00;99.90
32201;DHT22;18701;45.588;5.288;2023-12-14T11:48:08;7.90;99.90
32201;DHT22;18701;45.588;5.288;2023-12-14T11:50:36;8.00;99.90
32201;DHT22;18701;45.588;5.288;2023-12-14T11:53:03;8.00;99.90
32201;DHT22;18701;45.588;5.288;2023-12-14T11:55:31;8.00;99.90
32201;DHT22;18701;45.588;5.288;2023-12-14T11:57:57;8.20;99.90
32201;DHT22;18701;45.588;5.288;2023-12-14T12:00:27;8.20;99.90
32201;DHT22;18701;45.588;5.288;2023-12-14T12:03:10;8.20;99.90
32201;DHT22;18701;45.588;5.288;2023-12-14T12:05:43;8.10;99.90
32201;DHT22;18701;45.588;5.288;2023-12-14T12:08:10;8.20;99.90
32201;DHT22;18701;45.588;5.288;2023-12-14T12:10:41;8.20;99.90
32201;DHT22;18701;45.588;5.288;2023-12-14T12:13:12;8.40;99.90
32201;DHT22;18701;45.588;5.288;2023-12-14T12:15:37;8.40;99.90
32201;DHT22;18701;45.588;5.288;2023-12-14T12:18:10;8.30;99.90
32201;DHT22;18701;45.588;5.288;2023-12-14T12:20:36;8.30;99.90
32201;DHT22;18701;45.588;5.288;2023-12-14T12:23:02;8.40;99.90
32201;DHT22;18701;45.588;5.288;2023-12-14T12:25:29;8.30;99.90
32201;DHT22;18701;45.588;5.288;2023-12-14T12:27:55;8.20;99.90
32201;DHT22;18701;45.588;5.288;2023-12-14T12:30:21;8.10;99.90
32201;DHT22;18701;45.588;5.288;2023-12-14T12:32:47;8.30;99.90
32201;DHT22;18701;45.588;5.288;2023-12-14T12:35:12;8.40;99.90
32201;DHT22;18701;45.588;5.288;2023-12-14T12:37:39;8.50;99.90
32201;DHT22;18701;45.588;5.288;2023-12-14T12:40:05;8.60;99.90
32201;DHT22;18701;45.588;5.288;2023-12-14T12:42:32;8.60;99.90
32201;DHT22;18701;45.588;5.288;2023-12-14T12:44:57;8.70;99.90
32201;DHT22;18701;45.588;5.288;2023-12-14T12:47:23;8.50;99.90
32201;DHT22;18701;45.588;5.288;2023-12-14T12:49:49;8.60;99.90
32201;DHT22;18701;45.588;5.288;2023-12-14T12:52:15;8.40;99.90
32201;DHT22;18701;45.588;5.288;2023-12-14T12:54:40;8.70;99.90
32201;DHT22;18701;45.588;5.288;2023-12-14T12:57:06;8.80;99.90
32201;DHT22;18701;45.588;5.288;2023-12-14T12:59:32;9.00;99.90
32201;DHT22;18701;45.588;5.288;2023-12-14T13:01:58;8.70;99.90
32201;DHT22;18701;45.588;5.288;2023-12-14T13:04:24;8.80;99.90
32201;DHT22;18701;45.588;5.288;2023-12-14T13:06:52;8.60;99.90
32201;DHT22;18701;45.588;5.288;2023-12-14T13:09:18;8.50;99.90
32201;DHT22;18701;45.588;5.288;2023-12-14T13:11:44;8.50;99.90
32201;DHT22;18701;45.588;5.288;2023-12-14T13:14:10;8.70;99.90
32201;DHT22;18701;45.588;5.288;2023-12-14T13:16:37;8.80;99.90
32201;DHT22;18701;45.588;5.288;2023-12-14T13:19:03;9.00;99.90
32201;DHT22;18701;45.588;5.288;2023-12-14T13:21:30;10.10;99.90
32201;DHT22;18701;45.588;5.288;2023-12-14T13:23:56;10.80;99.90
32201;DHT22;18701;45.588;5.288;2023-12-14T13:26:24;10.40;99.90
32201;DHT22;18701;45.588;5.288;2023-12-14T13:28:51;10.20;99.90
32201;DHT22;18701;45.588;5.288;2023-12-14T13:31:16;9.70;99.90
32201;DHT22;18701;45.588;5.288;2023-12-14T13:33:42;9.30;99.90
32201;DHT22;18701;45.588;5.288;2023-12-14T13:36:08;9.00;99.90
32201;DHT22;18701;45.588;5.288;2023-12-14T13:38:34;9.10;99.90
32201;DHT22;18701;45.588;5.288;2023-12-14T13:41:02;8.90;99.90
32201;DHT22;18701;45.588;5.288;2023-12-14T13:43:29;9.00;99.90
32201;DHT22;18701;45.588;5.288;2023-12-14T13:45:55;8.90;99.90
32201;DHT22;18701;45.588;5.288;2023-12-14T13:48:24;8.90;99.90
32201;DHT22;18701;45.588;5.288;2023-12-14T13:50:50;8.80;99.90
32201;DHT22;18701;45.588;5.288;2023-12-14T13:53:16;8.80;99.90
32201;DHT22;18701;45.588;5.288;2023-12-14T13:55:41;8.80;99.90
32201;DHT22;18701;45.588;5.288;2023-12-14T13:58:07;8.60;99.90
32201;DHT22;18701;45.588;5.288;2023-12-14T14:00:32;8.60;99.90
32201;DHT22;18701;45.588;5.288;2023-12-14T14:03:00;8.80;99.90
32201;DHT22;18701;45.588;5.288;2023-12-14T14:05:26;8.60;99.90
32201;DHT22;18701;45.588;5.288;2023-12-14T14:07:52;8.60;99.90
32201;DHT22;18701;45.588;5.288;2023-12-14T14:10:19;8.60;99.90
32201;DHT22;18701;45.588;5.288;2023-12-14T14:12:45;8.50;99.90
32201;DHT22;18701;45.588;5.288;2023-12-14T14:15:12;8.60;99.90
32201;DHT22;18701;45.588;5.288;2023-12-14T14:17:38;8.60;99.90
32201;DHT22;18701;45.588;5.288;2023-12-14T14:20:04;8.60;99.90
32201;DHT22;18701;45.588;5.288;2023-12-14T14:22:30;8.50;99.90
32201;DHT22;18701;45.588;5.288;2023-12-14T14:24:56;8.60;99.90
32201;DHT22;18701;45.588;5.288;2023-12-14T14:27:22;8.70;99.90
32201;DHT22;18701;45.588;5.288;2023-12-14T14:29:49;8.70;99.90
32201;DHT22;18701;45.588;5.288;2023-12-14T14:32:15;8.90;99.90
32201;DHT22;18701;45.588;5.288;2023-12-14T14:34:42;8.80;99.90
32201;DHT22;18701;45.588;5.288;2023-12-14T14:37:07;8.90;99.90
32201;DHT22;18701;45.588;5.288;2023-12-14T14:39:33;8.80;99.90
32201;DHT22;18701;45.588;5.288;2023-12-14T14:41:59;8.80;99.90
32201;DHT22;18701;45.588;5.288;2023-12-14T14:44:25;8.70;99.90
32201;DHT22;18701;45.588;5.288;2023-12-14T14:46:51;8.70;99.90
32201;DHT22;18701;45.588;5.288;2023-12-14T14:49:17;8.70;99.90
32201;DHT22;18701;45.588;5.288;2023-12-14T14:51:43;8.70;99.90
32201;DHT22;18701;45.588;5.288;2023-12-14T14:54:09;8.80;99.90
32201;DHT22;18701;45.588;5.288;2023-12-14T14:56:34;8.70;99.90
32201;DHT22;18701;45.588;5.288;2023-12-14T14:59:00;8.60;99.90
32201;DHT22;18701;45.588;5.288;2023-12-14T15:01:26;8.70;99.90
32201;DHT22;18701;45.588;5.288;2023-12-14T15:03:51;8.70;99.90
32201;DHT22;18701;45.588;5.288;2023-12-14T15:06:17;8.70;99.90
32201;DHT22;18701;45.588;5.288;2023-12-14T15:08:43;8.70;99.90
32201;DHT22;18701;45.588;5.288;2023-12-14T15:11:08;8.70;99.90
32201;DHT22;18701;45.588;5.288;2023-12-14T15:13:36;8.60;99.90
32201;DHT22;18701;45.588;5.288;2023-12-14T15:16:01;8.60;99.90
32201;DHT22;18701;45.588;5.288;2023-12-14T15:18:27;8.40;99.90
32201;DHT22;18701;45.588;5.288;2023-12-14T15:20:53;8.30;99.90
32201;DHT22;18701;45.588;5.288;2023-12-14T15:23:19;8.20;99.90
32201;DHT22;18701;45.588;5.288;2023-12-14T15:25:44;8.30;99.90
32201;DHT22;18701;45.588;5.288;2023-12-14T15:28:10;8.20;99.90
32201;DHT22;18701;45.588;5.288;2023-12-14T15:30:36;8.10;99.90
32201;DHT22;18701;45.588;5.288;2023-12-14T15:33:02;8.10;99.90
32201;DHT22;18701;45.588;5.288;2023-12-14T15:35:28;8.10;99.90
32201;DHT22;18701;45.588;5.288;2023-12-14T15:37:54;8.10;99.90
32201;DHT22;18701;45.588;5.288;2023-12-14T15:40:19;8.00;99.90
32201;DHT22;18701;45.588;5.288;2023-12-14T15:42:45;8.20;99.90
32201;DHT22;18701;45.588;5.288;2023-12-14T15:45:12;8.20;99.90
32201;DHT22;18701;45.588;5.288;2023-12-14T15:47:38;8.10;99.90